createdAt,value
2018-12-17T00:01:44.513Z,4.10
2018-12-17T00:03:47.696Z,4.20
2018-12-17T00:05:50.984Z,4.20
2018-12-17T00:07:54.335Z,4.20
2018-12-17T00:09:57.899Z,4.10
2018-12-17T00:12:01.192Z,4.10
2018-12-17T00:14:05.517Z,4.10
2018-12-17T00:16:08.827Z,4.10
2018-12-17T00:18:12.073Z,4.10
2018-12-17T00:20:15.379Z,4.10
2018-12-17T00:22:18.602Z,4.20
2018-12-17T00:24:21.742Z,4.10
2018-12-17T00:26:24.874Z,4.10
2018-12-17T00:28:28.044Z,4.10
2018-12-17T00:30:31.186Z,4.10
2018-12-17T00:32:34.327Z,4.10
2018-12-17T00:34:37.503Z,4.10
2018-12-17T00:36:41.318Z,4.10
2018-12-17T00:38:44.893Z,4.10
2018-12-17T00:40:48.102Z,4.10
2018-12-17T00:42:51.230Z,4.10
2018-12-17T00:44:54.379Z,4.10
2018-12-17T00:46:57.930Z,4.10
2018-12-17T00:49:01.067Z,4.10
2018-12-17T00:51:04.361Z,4.10
2018-12-17T00:53:07.807Z,4.10
2018-12-17T00:55:12.059Z,4.10
2018-12-17T00:57:15.357Z,4.10
2018-12-17T00:59:19.103Z,4.20
2018-12-17T01:01:23.454Z,4.10
2018-12-17T01:03:26.758Z,4.10
2018-12-17T01:05:29.905Z,4.10
2018-12-17T01:07:33.126Z,4.10
2018-12-17T01:09:36.288Z,4.10
2018-12-17T01:11:39.502Z,4.10
2018-12-17T01:13:42.624Z,4.10
2018-12-17T01:15:46.015Z,4.10
2018-12-17T01:17:49.301Z,4.20
2018-12-17T01:19:52.599Z,4.20
2018-12-17T01:21:55.900Z,4.20
2018-12-17T01:23:59.062Z,4.10
2018-12-17T01:26:02.489Z,4.10
2018-12-17T01:28:06.027Z,4.10
2018-12-17T01:30:09.703Z,4.10
2018-12-17T01:32:13.092Z,4.10
2018-12-17T01:34:16.239Z,4.10
2018-12-17T01:36:19.367Z,4.10
2018-12-17T01:38:22.622Z,4.10
2018-12-17T01:40:26.077Z,4.10
2018-12-17T01:42:29.679Z,4.00
2018-12-17T01:44:33.155Z,4.00
2018-12-17T01:46:36.676Z,4.00
2018-12-17T01:48:41.119Z,4.00
2018-12-17T01:50:44.858Z,4.00
2018-12-17T01:52:48.530Z,4.10
2018-12-17T01:54:51.948Z,4.10
2018-12-17T01:56:55.245Z,4.10
2018-12-17T01:58:58.461Z,4.00
2018-12-17T02:01:01.602Z,4.00
2018-12-17T02:03:04.844Z,4.00
2018-12-17T02:05:08.400Z,4.00
2018-12-17T02:07:11.842Z,4.10
2018-12-17T02:09:16.614Z,4.10
2018-12-17T02:11:20.012Z,4.10
2018-12-17T02:13:24.144Z,4.10
2018-12-17T02:15:27.355Z,4.10
2018-12-17T02:17:31.766Z,4.10
2018-12-17T02:19:35.027Z,4.10
2018-12-17T02:21:38.169Z,4.10
2018-12-17T02:23:41.286Z,4.10
2018-12-17T02:25:44.434Z,4.10
2018-12-17T02:29:57.532Z,4.10
2018-12-17T02:32:00.649Z,4.10
2018-12-17T02:34:04.047Z,4.10
2018-12-17T02:36:07.662Z,4.10
2018-12-17T02:38:11.334Z,4.10
2018-12-17T02:40:14.543Z,4.10
2018-12-17T02:42:17.702Z,4.10
2018-12-17T02:44:21.088Z,4.10
2018-12-17T02:46:24.339Z,4.10
2018-12-17T02:48:27.657Z,4.10
2018-12-17T02:50:31.304Z,4.10
2018-12-17T02:52:34.806Z,4.10
2018-12-17T02:54:38.399Z,4.10
2018-12-17T02:56:41.906Z,4.20
2018-12-17T02:58:45.112Z,4.20
2018-12-17T03:00:48.894Z,4.10
2018-12-17T03:02:52.383Z,4.20
2018-12-17T03:04:55.727Z,4.20
2018-12-17T03:06:59.322Z,4.30
2018-12-17T03:09:05.025Z,4.30
2018-12-17T03:11:08.195Z,4.30
2018-12-17T03:13:11.391Z,4.30
2018-12-17T03:15:14.584Z,4.30
2018-12-17T03:17:18.085Z,4.30
2018-12-17T03:19:21.611Z,4.30
2018-12-17T03:21:25.071Z,4.30
2018-12-17T03:23:28.371Z,4.30
2018-12-17T03:25:31.548Z,4.30
2018-12-17T03:27:34.692Z,4.30
2018-12-17T03:29:38.112Z,4.20
2018-12-17T03:31:41.530Z,4.20
2018-12-17T03:33:44.746Z,4.20
2018-12-17T03:35:47.974Z,4.20
2018-12-17T03:37:51.206Z,4.10
2018-12-17T03:39:54.383Z,4.10
2018-12-17T03:41:57.500Z,4.10
2018-12-17T03:44:00.638Z,4.10
2018-12-17T03:46:04.036Z,4.00
2018-12-17T03:48:07.162Z,4.00
2018-12-17T03:50:10.826Z,3.90
2018-12-17T03:52:14.531Z,3.90
2018-12-17T03:54:18.342Z,3.90
2018-12-17T03:56:22.032Z,3.90
2018-12-17T03:58:26.185Z,3.90
2018-12-17T04:00:31.466Z,3.90
2018-12-17T04:02:35.106Z,3.90
2018-12-17T04:04:38.345Z,3.90
2018-12-17T04:06:41.635Z,3.90
2018-12-17T04:08:44.926Z,4.00
2018-12-17T04:10:49.327Z,4.00
2018-12-17T04:12:52.516Z,4.00
2018-12-17T04:14:56.019Z,4.00
2018-12-17T04:16:59.316Z,4.00
2018-12-17T04:19:02.534Z,4.00
2018-12-17T04:21:05.717Z,4.10
2018-12-17T04:23:08.834Z,4.10
2018-12-17T04:25:11.987Z,4.10
2018-12-17T04:27:15.139Z,4.10
2018-12-17T04:29:18.285Z,4.10
2018-12-17T04:31:21.421Z,4.10
2018-12-17T04:33:24.565Z,4.10
2018-12-17T04:35:27.974Z,4.10
2018-12-17T04:37:31.442Z,4.10
2018-12-17T04:39:34.608Z,4.10
2018-12-17T04:41:39.206Z,4.10
2018-12-17T04:43:42.773Z,4.20
2018-12-17T04:45:46.407Z,4.20
2018-12-17T04:47:49.791Z,4.20
2018-12-17T04:49:53.493Z,4.20
2018-12-17T04:51:57.270Z,4.20
2018-12-17T04:54:01.484Z,4.20
2018-12-17T04:56:05.312Z,4.20
2018-12-17T04:58:08.619Z,4.20
2018-12-17T05:00:12.107Z,4.30
2018-12-17T05:02:15.449Z,4.30
2018-12-17T05:04:22.793Z,4.30
2018-12-17T05:06:26.103Z,4.30
2018-12-17T05:08:29.431Z,4.30
2018-12-17T05:10:33.239Z,4.30
2018-12-17T05:12:36.806Z,4.30
2018-12-17T05:14:40.259Z,4.30
2018-12-17T05:16:43.521Z,4.30
2018-12-17T05:18:46.664Z,4.30
2018-12-17T05:20:50.597Z,4.30
2018-12-17T05:22:53.847Z,4.30
2018-12-17T05:24:57.317Z,4.30
2018-12-17T05:27:00.925Z,4.30
2018-12-17T05:29:04.186Z,4.30
2018-12-17T05:31:07.918Z,4.30
2018-12-17T05:33:11.895Z,4.30
2018-12-17T05:35:15.520Z,4.30
2018-12-17T05:37:21.139Z,4.30
2018-12-17T05:39:26.349Z,4.30
2018-12-17T05:41:33.418Z,4.30
2018-12-17T05:43:38.566Z,4.30
2018-12-17T05:45:42.366Z,4.30
2018-12-17T05:47:46.692Z,4.30
2018-12-17T05:49:49.922Z,4.30
2018-12-17T05:51:56.596Z,4.40
2018-12-17T05:54:01.584Z,4.30
2018-12-17T05:56:08.062Z,4.30
2018-12-17T05:58:12.320Z,4.40
2018-12-17T06:00:19.323Z,4.40
2018-12-17T06:02:25.436Z,4.40
2018-12-17T06:04:31.559Z,4.40
2018-12-17T06:06:35.173Z,4.50
2018-12-17T06:08:41.712Z,4.50
2018-12-17T06:13:33.320Z,4.50
2018-12-17T06:15:36.650Z,4.40
2018-12-17T06:17:40.041Z,4.40
2018-12-17T06:19:43.170Z,4.40
2018-12-17T06:21:46.378Z,4.30
2018-12-17T06:23:49.871Z,4.30
2018-12-17T06:25:53.209Z,4.30
2018-12-17T06:27:56.576Z,4.30
2018-12-17T06:29:59.774Z,4.30
2018-12-17T06:32:03.186Z,4.30
2018-12-17T06:34:06.926Z,4.30
2018-12-17T06:36:10.311Z,4.30
2018-12-17T06:38:13.611Z,4.30
2018-12-17T06:40:16.889Z,4.30
2018-12-17T06:42:21.717Z,4.30
2018-12-17T06:44:26.394Z,4.40
2018-12-17T06:46:45.502Z,4.40
2018-12-17T06:49:26.384Z,4.40
2018-12-17T06:52:03.150Z,4.50
2018-12-17T07:10:08.688Z,4.30
2018-12-17T07:12:18.085Z,4.20
2018-12-17T07:14:36.319Z,4.20
2018-12-17T07:22:34.411Z,4.30
2018-12-17T07:24:50.200Z,4.30
2018-12-17T07:27:07.472Z,4.40
2018-12-17T07:30:02.305Z,4.40
2018-12-17T07:32:06.971Z,4.40
2018-12-17T07:34:13.378Z,4.50
2018-12-17T07:36:16.844Z,4.50
2018-12-17T07:38:20.116Z,4.50
2018-12-17T07:40:24.551Z,4.50
2018-12-17T07:42:32.338Z,4.50
2018-12-17T07:44:35.887Z,4.60
2018-12-17T07:46:39.911Z,4.60
2018-12-17T07:48:43.079Z,4.60
2018-12-17T07:50:46.339Z,4.60
2018-12-17T07:52:49.905Z,4.60
2018-12-17T07:54:53.265Z,4.70
2018-12-17T07:56:56.745Z,4.70
2018-12-17T07:59:00.303Z,4.70
2018-12-17T08:01:03.648Z,4.70
2018-12-17T08:03:07.370Z,4.70
2018-12-17T08:05:10.923Z,4.70
2018-12-17T08:07:14.819Z,4.80
2018-12-17T08:09:18.198Z,4.80
2018-12-17T08:11:21.659Z,4.80
2018-12-17T08:13:25.220Z,4.90
2018-12-17T08:15:28.683Z,4.80
2018-12-17T08:17:32.173Z,4.80
2018-12-17T08:19:35.640Z,4.90
2018-12-17T08:21:38.898Z,4.90
2018-12-17T08:23:42.502Z,4.90
2018-12-17T08:25:46.023Z,4.90
2018-12-17T08:27:49.471Z,4.90
2018-12-17T08:29:52.762Z,4.90
2018-12-17T08:31:55.983Z,5.00
2018-12-17T08:33:59.430Z,5.00
2018-12-17T08:36:02.862Z,5.10
2018-12-17T08:38:06.347Z,5.10
2018-12-17T08:40:09.903Z,5.20
2018-12-17T08:42:13.273Z,5.30
2018-12-17T08:44:16.780Z,5.30
2018-12-17T08:46:20.215Z,5.40
2018-12-17T08:48:23.995Z,5.40
2018-12-17T08:50:27.538Z,5.40
2018-12-17T08:52:31.304Z,5.40
2018-12-17T08:54:34.548Z,5.50
2018-12-17T08:56:37.926Z,5.40
2018-12-17T08:58:41.289Z,5.40
2018-12-17T09:00:44.549Z,5.40
2018-12-17T09:02:47.674Z,5.40
2018-12-17T09:04:50.812Z,5.40
2018-12-17T09:06:53.907Z,5.40
2018-12-17T09:08:57.031Z,5.40
2018-12-17T09:11:00.164Z,5.40
2018-12-17T09:13:03.279Z,5.40
2018-12-17T09:15:06.737Z,5.50
2018-12-17T09:17:09.853Z,5.50
2018-12-17T09:19:12.966Z,5.50
2018-12-17T09:21:16.075Z,5.60
2018-12-17T09:23:19.177Z,5.60
2018-12-17T09:25:22.300Z,5.60
2018-12-17T09:27:25.437Z,5.60
2018-12-17T09:29:33.944Z,5.60
2018-12-17T09:31:38.259Z,5.70
2018-12-17T09:33:41.458Z,5.70
2018-12-17T09:35:44.594Z,5.70
2018-12-17T09:37:48.837Z,5.70
2018-12-17T09:39:51.986Z,5.70
2018-12-17T09:41:55.202Z,5.80
2018-12-17T09:43:58.471Z,5.70
2018-12-17T09:46:01.694Z,5.80
2018-12-17T09:48:05.994Z,5.80
2018-12-17T09:50:09.258Z,5.80
2018-12-17T09:52:12.494Z,5.80
2018-12-17T09:54:15.842Z,5.90
2018-12-17T09:56:18.942Z,6.00
2018-12-17T09:58:22.085Z,6.00
2018-12-17T10:00:25.822Z,6.00
2018-12-17T10:02:29.006Z,6.00
2018-12-17T10:04:32.114Z,6.00
2018-12-17T10:06:35.336Z,5.90
2018-12-17T10:08:38.992Z,6.00
2018-12-17T10:10:42.342Z,6.00
2018-12-17T10:12:46.686Z,6.00
2018-12-17T10:14:50.643Z,6.00
2018-12-17T10:16:56.722Z,6.00
2018-12-17T10:19:01.096Z,6.00
2018-12-17T10:21:04.398Z,6.10
2018-12-17T10:23:08.587Z,6.10
2018-12-17T10:25:13.265Z,6.10
2018-12-17T10:27:17.333Z,6.20
2018-12-17T10:29:21.792Z,6.20
2018-12-17T10:31:25.062Z,6.20
2018-12-17T10:33:28.203Z,6.20
2018-12-17T10:35:31.345Z,6.20
2018-12-17T10:37:34.607Z,6.30
2018-12-17T10:39:37.718Z,6.30
2018-12-17T10:41:40.834Z,6.40
2018-12-17T10:43:44.022Z,6.40
2018-12-17T10:45:47.162Z,6.50
2018-12-17T10:47:50.309Z,6.50
2018-12-17T10:49:53.567Z,6.50
2018-12-17T10:51:56.784Z,6.60
2018-12-17T10:53:59.979Z,6.60
2018-12-17T10:56:03.222Z,6.60
2018-12-17T10:58:06.334Z,6.70
2018-12-17T11:00:16.271Z,6.70
2018-12-17T11:02:23.679Z,6.80
2018-12-17T11:04:32.078Z,6.90
2018-12-17T11:06:35.350Z,6.90
2018-12-17T11:08:38.471Z,7.00
2018-12-17T11:10:41.699Z,7.00
2018-12-17T11:12:44.874Z,7.10
2018-12-17T11:14:48.115Z,7.10
2018-12-17T11:16:51.498Z,7.20
2018-12-17T11:18:54.643Z,7.20
2018-12-17T11:20:57.849Z,7.20
2018-12-17T11:23:02.056Z,7.20
2018-12-17T11:25:06.687Z,7.10
2018-12-17T11:27:09.909Z,7.10
2018-12-17T11:29:15.416Z,7.10
2018-12-17T11:31:18.607Z,7.10
2018-12-17T11:33:21.759Z,7.10
2018-12-17T11:35:25.036Z,7.10
2018-12-17T11:37:28.238Z,7.10
2018-12-17T11:39:31.360Z,7.20
2018-12-17T11:41:34.514Z,7.30
2018-12-17T11:43:43.652Z,7.40
2018-12-17T11:45:42.845Z,7.60
2018-12-17T11:47:46.047Z,7.60
2018-12-17T11:49:51.093Z,7.70
2018-12-17T11:51:56.283Z,7.70
2018-12-17T11:53:59.683Z,7.70
2018-12-17T11:56:03.187Z,7.70
2018-12-17T11:58:11.443Z,7.70
2018-12-17T12:00:14.765Z,7.70
2018-12-17T12:02:24.462Z,7.70
2018-12-17T12:04:27.674Z,7.70
2018-12-17T12:06:32.767Z,7.70
2018-12-17T12:08:36.678Z,7.60
2018-12-17T12:10:39.938Z,7.60
2018-12-17T12:12:43.307Z,7.60
2018-12-17T12:14:46.594Z,7.50
2018-12-17T12:16:49.907Z,7.50
2018-12-17T12:18:54.741Z,7.50
2018-12-17T12:20:58.706Z,7.50
2018-12-17T12:23:02.515Z,7.50
2018-12-17T12:25:05.871Z,7.50
2018-12-17T12:27:09.072Z,7.50
2018-12-17T12:29:12.628Z,7.50
2018-12-17T12:31:15.922Z,7.40
2018-12-17T12:33:19.042Z,7.40
2018-12-17T12:35:22.889Z,7.40
2018-12-17T12:37:30.338Z,7.40
2018-12-17T12:39:39.856Z,7.40
2018-12-17T12:41:43.169Z,7.40
2018-12-17T12:43:54.475Z,7.40
2018-12-17T12:45:57.996Z,7.40
2018-12-17T12:48:05.151Z,7.40
2018-12-17T12:50:09.294Z,7.40
2018-12-17T12:52:13.551Z,7.40
2018-12-17T12:54:21.410Z,7.40
2018-12-17T12:56:24.840Z,7.40
2018-12-17T12:58:29.801Z,7.40
2018-12-17T13:00:33.024Z,7.40
2018-12-17T13:02:36.246Z,7.40
2018-12-17T13:04:40.534Z,7.40
2018-12-17T13:06:43.680Z,7.40
2018-12-17T13:08:54.092Z,7.40
2018-12-17T13:11:00.857Z,7.40
2018-12-17T13:13:08.863Z,7.40
2018-12-17T13:15:12.240Z,7.40
2018-12-17T13:17:34.122Z,7.40
2018-12-17T13:19:37.246Z,7.50
2018-12-17T13:21:40.462Z,7.50
2018-12-17T13:23:44.367Z,7.50
2018-12-17T13:25:48.642Z,7.50
2018-12-17T13:27:55.632Z,7.50
2018-12-17T13:29:59.813Z,7.40
2018-12-17T13:32:04.226Z,7.40
2018-12-17T13:34:07.732Z,7.40
2018-12-17T13:36:12.294Z,7.40
2018-12-17T13:38:15.611Z,7.40
2018-12-17T13:40:18.814Z,7.40
2018-12-17T13:42:21.986Z,7.40
2018-12-17T13:44:25.173Z,7.50
2018-12-17T13:46:28.332Z,7.50
2018-12-17T13:48:31.466Z,7.50
2018-12-17T13:50:38.672Z,7.50
2018-12-17T13:52:45.901Z,7.50
2018-12-17T13:54:49.026Z,7.50
2018-12-17T13:56:52.234Z,7.50
2018-12-17T13:58:55.673Z,7.50
2018-12-17T14:00:59.282Z,7.50
2018-12-17T14:03:02.414Z,7.50
2018-12-17T14:05:05.711Z,7.50
2018-12-17T14:07:08.847Z,7.50
2018-12-17T14:09:12.038Z,7.50
2018-12-17T14:11:15.354Z,7.50
2018-12-17T14:13:18.581Z,7.50
2018-12-17T14:15:24.174Z,7.50
2018-12-17T14:17:32.902Z,7.50
2018-12-17T14:19:42.037Z,7.50
2018-12-17T14:21:52.235Z,7.50
2018-12-17T14:23:58.781Z,7.40
2018-12-17T14:26:04.501Z,7.40
2018-12-17T14:28:10.787Z,7.50
2018-12-17T14:30:17.682Z,7.40
2018-12-17T14:32:20.899Z,7.40
2018-12-17T14:34:26.551Z,7.30
2018-12-17T14:36:29.930Z,7.30
2018-12-17T14:38:36.662Z,7.30
2018-12-17T14:40:44.271Z,7.30
2018-12-17T14:42:49.869Z,7.30
2018-12-17T14:44:54.361Z,7.30
2018-12-17T14:46:59.241Z,7.30
2018-12-17T14:49:05.635Z,7.30
2018-12-17T14:51:10.426Z,7.30
2018-12-17T14:53:17.235Z,7.30
2018-12-17T14:55:20.961Z,7.30
2018-12-17T14:57:24.381Z,7.30
2018-12-17T14:59:33.954Z,7.30
2018-12-17T15:01:38.552Z,7.30
2018-12-17T15:03:41.925Z,7.20
2018-12-17T15:05:45.113Z,7.20
2018-12-17T15:07:50.871Z,7.20
2018-12-17T15:10:02.566Z,7.20
2018-12-17T15:12:07.796Z,7.20
2018-12-17T15:14:20.897Z,7.20
2018-12-17T15:16:43.691Z,7.20
2018-12-17T15:19:06.463Z,7.20
2018-12-17T15:21:19.566Z,7.20
2018-12-17T15:23:22.986Z,7.20
2018-12-17T15:25:31.903Z,7.20
2018-12-17T15:27:36.157Z,7.20
2018-12-17T15:29:46.182Z,7.20
2018-12-17T15:31:49.509Z,7.20
2018-12-17T15:33:54.675Z,7.10
2018-12-17T15:38:10.782Z,7.10
2018-12-17T15:40:20.133Z,7.10
2018-12-17T15:42:26.735Z,7.10
2018-12-17T15:44:29.969Z,7.10
2018-12-17T15:46:34.827Z,7.10
2018-12-17T15:48:40.375Z,7.10
2018-12-17T15:50:48.509Z,7.10
2018-12-17T15:52:55.681Z,7.10
2018-12-17T15:54:58.858Z,7.10
2018-12-17T15:57:02.101Z,7.10
2018-12-17T15:59:07.322Z,7.10
2018-12-17T16:01:10.681Z,7.10
2018-12-17T16:03:14.010Z,7.10
2018-12-17T16:05:20.264Z,7.10
2018-12-17T16:07:27.974Z,7.10
2018-12-17T16:09:31.351Z,7.10
2018-12-17T16:11:35.908Z,7.10
2018-12-17T16:13:46.210Z,7.10
2018-12-17T16:18:26.583Z,7.10
2018-12-17T16:20:29.735Z,7.20
2018-12-17T16:22:33.196Z,7.20
2018-12-17T16:24:47.463Z,7.20
2018-12-17T16:26:54.104Z,7.20
2018-12-17T16:29:06.630Z,7.20
2018-12-17T16:31:16.176Z,7.20
2018-12-17T16:33:29.659Z,7.10
2018-12-17T16:35:29.147Z,7.20
2018-12-17T16:37:32.468Z,7.10
2018-12-17T16:39:35.951Z,7.20
2018-12-17T16:41:40.990Z,7.20
2018-12-17T16:52:27.827Z,7.10
2018-12-17T16:54:50.769Z,7.10
2018-12-17T17:07:59.864Z,7.10
2018-12-17T17:10:33.540Z,7.10
2018-12-17T17:17:49.595Z,7.10
2018-12-17T17:19:52.746Z,7.10
2018-12-17T17:21:58.548Z,7.10
2018-12-17T17:24:01.874Z,7.10
2018-12-17T17:26:07.743Z,7.20
2018-12-17T17:30:02.374Z,7.10
2018-12-17T17:45:00.651Z,7.10
2018-12-17T17:49:19.382Z,6.90
2018-12-17T17:51:22.599Z,7.00
2018-12-17T17:53:25.755Z,7.00
2018-12-17T17:55:29.204Z,7.00
2018-12-17T17:57:32.404Z,7.00
2018-12-17T17:59:35.623Z,7.00
2018-12-17T18:01:43.098Z,7.00
2018-12-17T18:03:46.545Z,7.10
2018-12-17T18:05:50.124Z,7.10
2018-12-17T18:07:57.079Z,7.20
2018-12-17T18:10:00.554Z,7.20
2018-12-17T18:12:05.328Z,7.20
2018-12-17T18:14:08.664Z,7.20
2018-12-17T18:16:14.583Z,7.20
2018-12-17T18:18:17.977Z,7.20
2018-12-17T18:20:21.343Z,7.10
2018-12-17T18:22:24.577Z,7.10
2018-12-17T18:24:27.728Z,7.10
2018-12-17T18:26:30.938Z,7.10
2018-12-17T18:42:04.647Z,6.90
2018-12-17T18:44:09.123Z,6.70
2018-12-17T18:46:14.746Z,6.60
2018-12-17T18:48:23.527Z,6.50
2018-12-17T18:50:28.843Z,6.50
2018-12-17T18:52:35.697Z,6.40
2018-12-17T18:54:40.579Z,6.30
2018-12-17T18:56:44.836Z,6.30
2018-12-17T18:58:49.530Z,6.20
2018-12-17T19:00:52.811Z,6.20
2018-12-17T19:02:59.311Z,6.10
2018-12-17T19:05:06.960Z,6.10
2018-12-17T19:07:19.012Z,6.00
2018-12-17T19:09:26.802Z,6.00
2018-12-17T19:11:30.171Z,5.90
2018-12-17T19:13:34.240Z,5.90
2018-12-17T19:15:48.479Z,5.90
2018-12-17T19:17:58.193Z,5.90
2018-12-17T19:20:07.301Z,5.90
2018-12-17T19:22:18.646Z,5.90
2018-12-17T19:24:40.014Z,5.90
2018-12-17T19:29:01.584Z,6.00
2018-12-17T19:31:04.802Z,6.10
2018-12-17T19:33:09.223Z,6.20
2018-12-17T19:35:53.280Z,6.30
2018-12-17T19:38:00.927Z,6.30
2018-12-17T19:40:08.343Z,6.40
2018-12-17T19:42:17.602Z,6.40
2018-12-17T19:44:25.888Z,6.50
2018-12-17T19:46:29.658Z,6.50
2018-12-17T19:48:34.467Z,6.50
2018-12-17T19:50:44.658Z,6.60
2018-12-17T19:52:50.584Z,6.60
2018-12-17T19:54:55.077Z,6.60
2018-12-17T19:57:03.054Z,6.60
2018-12-17T19:59:14.280Z,6.60
2018-12-17T20:01:20.659Z,6.70
2018-12-17T20:03:31.067Z,6.70
2018-12-17T20:05:47.387Z,6.70
2018-12-17T20:07:56.051Z,6.70
2018-12-17T20:10:05.989Z,6.70
2018-12-17T20:12:19.217Z,6.70
2018-12-17T20:14:30.215Z,6.70
2018-12-17T20:16:40.370Z,6.70
2018-12-17T20:18:52.079Z,6.70
2018-12-17T20:21:00.991Z,6.70
2018-12-17T20:23:08.421Z,6.70
2018-12-17T20:25:18.107Z,6.70
2018-12-17T20:27:26.197Z,6.70
2018-12-17T20:29:34.933Z,6.70
2018-12-17T20:31:49.847Z,6.60
2018-12-17T20:34:04.829Z,6.60
2018-12-17T20:36:21.886Z,6.60
2018-12-17T20:38:29.985Z,6.50
2018-12-17T20:40:42.865Z,6.40
2018-12-17T20:42:55.039Z,6.30
2018-12-17T20:45:07.556Z,6.30
2018-12-17T20:47:20.559Z,6.20
2018-12-17T20:49:29.631Z,6.10
2018-12-17T20:51:38.426Z,6.20
2018-12-17T20:53:50.832Z,6.10
2018-12-17T20:55:57.626Z,6.10
2018-12-17T20:58:09.025Z,6.00
2018-12-17T21:00:13.475Z,5.90
2018-12-17T21:02:18.514Z,5.90
2018-12-17T21:04:45.272Z,5.90
2018-12-17T21:07:14.246Z,6.00
2018-12-17T21:11:58.831Z,6.10
2018-12-17T21:19:40.662Z,6.00
2018-12-17T21:27:20.574Z,6.00
2018-12-17T21:29:36.394Z,6.10
2018-12-17T21:34:40.198Z,6.20
2018-12-17T21:37:22.136Z,6.30
2018-12-17T21:42:35.944Z,6.30
2018-12-17T21:44:57.452Z,6.20
2018-12-17T21:47:29.687Z,6.20
2018-12-17T21:49:54.068Z,6.20
2018-12-17T21:52:00.411Z,6.30
2018-12-17T21:54:15.657Z,6.30
2018-12-17T21:56:20.063Z,6.30
2018-12-17T21:58:25.081Z,6.30
2018-12-17T22:00:28.554Z,6.30
2018-12-17T22:02:39.251Z,6.30
2018-12-17T22:04:46.340Z,6.30
2018-12-17T22:07:18.953Z,6.40
2018-12-17T22:09:22.148Z,6.40
2018-12-17T22:11:25.644Z,6.40
2018-12-17T22:13:41.639Z,6.50
2018-12-17T22:16:22.855Z,6.50
2018-12-17T22:18:30.613Z,6.50
2018-12-17T22:20:57.392Z,6.50
2018-12-17T22:23:09.922Z,6.50
2018-12-17T22:25:30.506Z,6.50
2018-12-17T22:29:46.049Z,6.60
2018-12-17T22:31:55.857Z,6.60
2018-12-17T22:34:35.535Z,6.70
2018-12-17T22:36:44.915Z,6.70
2018-12-17T22:38:49.388Z,6.70
2018-12-17T22:40:56.936Z,6.70
2018-12-17T22:43:09.615Z,6.70
2018-12-17T22:45:21.043Z,6.70
2018-12-17T22:47:28.049Z,6.70
2018-12-17T22:49:41.331Z,6.80
2018-12-17T22:51:45.366Z,6.80
2018-12-17T22:53:54.722Z,6.70
2018-12-17T22:56:00.940Z,6.70
2018-12-17T22:58:05.600Z,6.80
2018-12-17T23:00:10.902Z,6.80
2018-12-17T23:02:16.858Z,6.80
2018-12-17T23:04:21.857Z,6.80
2018-12-17T23:06:28.608Z,6.80
2018-12-17T23:08:37.394Z,6.80
2018-12-17T23:10:53.838Z,6.80
2018-12-17T23:13:09.167Z,6.80
2018-12-17T23:15:25.638Z,6.80
2018-12-17T23:17:39.159Z,6.90
2018-12-17T23:19:45.055Z,6.90
2018-12-17T23:21:51.755Z,6.90
2018-12-17T23:23:56.441Z,6.90
2018-12-17T23:26:02.350Z,6.90
2018-12-17T23:28:10.651Z,6.90
2018-12-17T23:30:17.337Z,6.90
2018-12-17T23:32:21.915Z,6.90
2018-12-17T23:34:25.784Z,7.00
2018-12-17T23:36:30.194Z,7.00
2018-12-17T23:38:34.063Z,7.00
2018-12-17T23:40:38.808Z,7.00
2018-12-17T23:43:04.111Z,7.00
2018-12-17T23:45:12.345Z,7.00
2018-12-17T23:47:19.857Z,7.10
2018-12-17T23:49:25.175Z,7.00
2018-12-17T23:51:34.130Z,7.00
2018-12-17T23:53:37.823Z,7.10
2018-12-17T23:55:41.923Z,7.00
2018-12-17T23:57:46.826Z,7.10
2018-12-17T23:59:52.878Z,7.10
